地図

経路データ

SID SEASON NUMBER BASIN SUBBASIN NAME ISO_TIME NATURE LAT LON WMO_WIND WMO_PRES WMO_AGENCY TRACK_TYPE DIST2LAND LANDFALL IFLAG USA_AGENCY USA_ATCF_ID USA_LAT USA_LON USA_RECORD USA_STATUS USA_WIND USA_PRES USA_SSHS USA_R34_NE USA_R34_SE USA_R34_SW USA_R34_NW USA_R50_NE USA_R50_SE USA_R50_SW USA_R50_NW USA_R64_NE USA_R64_SE USA_R64_SW USA_R64_NW USA_POCI USA_ROCI USA_RMW USA_EYE TOKYO_LAT TOKYO_LON TOKYO_GRADE TOKYO_WIND TOKYO_PRES TOKYO_R50_DIR TOKYO_R50_LONG TOKYO_R50_SHORT TOKYO_R30_DIR TOKYO_R30_LONG TOKYO_R30_SHORT TOKYO_LAND CMA_LAT CMA_LON CMA_CAT CMA_WIND CMA_PRES HKO_LAT HKO_LON HKO_CAT HKO_WIND HKO_PRES NEWDELHI_LAT NEWDELHI_LON NEWDELHI_GRADE NEWDELHI_WIND NEWDELHI_PRES NEWDELHI_CI NEWDELHI_DP NEWDELHI_POCI REUNION_LAT REUNION_LON REUNION_TYPE REUNION_WIND REUNION_PRES REUNION_TNUM REUNION_CI REUNION_RMW REUNION_R34_NE REUNION_R34_SE REUNION_R34_SW REUNION_R34_NW REUNION_R50_NE REUNION_R50_SE REUNION_R50_SW REUNION_R50_NW REUNION_R64_NE REUNION_R64_SE REUNION_R64_SW REUNION_R64_NW BOM_LAT BOM_LON BOM_TYPE BOM_WIND BOM_PRES BOM_TNUM BOM_CI BOM_RMW BOM_R34_NE BOM_R34_SE BOM_R34_SW BOM_R34_NW BOM_R50_NE BOM_R50_SE BOM_R50_SW BOM_R50_NW BOM_R64_NE BOM_R64_SE BOM_R64_SW BOM_R64_NW BOM_ROCI BOM_POCI BOM_EYE BOM_POS_METHOD BOM_PRES_METHOD NADI_LAT NADI_LON NADI_CAT NADI_WIND NADI_PRES WELLINGTON_LAT WELLINGTON_LON WELLINGTON_WIND WELLINGTON_PRES DS824_LAT DS824_LON DS824_STAGE DS824_WIND DS824_PRES TD9636_LAT TD9636_LON TD9636_STAGE TD9636_WIND TD9636_PRES TD9635_LAT TD9635_LON TD9635_WIND TD9635_PRES TD9635_ROCI NEUMANN_LAT NEUMANN_LON NEUMANN_CLASS NEUMANN_WIND NEUMANN_PRES MLC_LAT MLC_LON MLC_CLASS MLC_WIND MLC_PRES USA_GUST BOM_GUST BOM_GUST_PER REUNION_GUST REUNION_GUST_PER USA_SEAHGT USA_SEARAD_NE USA_SEARAD_SE USA_SEARAD_SW USA_SEARAD_NW STORM_SPEED STORM_DIR
1960093S13203 1960 16 SP MM NOT_NAMED 1960-04-01 12:00:00 TS -13.4000 202.900 main 1633 1621 O________OO___ jtwc_sh SH221960 -13.4000 -157.100 -1 -13.4000 202.900 TC -13.4000 -157.100 1 4 224
1960093S13203 1960 16 SP MM NOT_NAMED 1960-04-01 15:00:00 TS -13.5500 202.750 main 1621 1599 P________PP___ SH221960 -13.5500 -157.250 -1 -13.5500 -157.250 TC -13.5501 -157.250 1 4 224
1960093S13203 1960 16 SP MM NOT_NAMED 1960-04-01 18:00:00 TS -13.7000 202.600 main 1599 1587 O________OP___ jtwc_sh SH221960 -13.7000 -157.400 -1 -13.7000 202.600 TC -13.7001 -157.400 1 4 224
1960093S13203 1960 16 SP MM NOT_NAMED 1960-04-01 21:00:00 TS -13.8500 202.450 main 1587 1565 P________PP___ SH221960 -13.8500 -157.550 -1 -13.8500 -157.550 TC -13.8500 -157.550 1 4 224
1960093S13203 1960 16 SP MM NOT_NAMED 1960-04-02 00:00:00 TS -14.0000 202.300 main 1565 1554 O________OO___ jtwc_sh SH221960 -14.0000 -157.700 -1 -14.0000 202.300 TC 25 -14.0000 -157.700 1 4 224
1960093S13203 1960 16 SP MM NOT_NAMED 1960-04-02 03:00:00 TS -14.1500 202.150 main 1544 1533 P________PP___ SH221960 -14.1500 -157.850 -1 -14.1500 -157.850 TC 25 -14.1500 -157.850 1 4 224
1960093S13203 1960 16 SP MM NOT_NAMED 1960-04-02 06:00:00 TS -14.3000 202.000 main 1533 1522 O________OP___ jtwc_sh SH221960 -14.3000 -158.000 -1 -14.3000 202.000 TC 25 -14.3000 -158.000 1 4 224
1960093S13203 1960 16 SP MM NOT_NAMED 1960-04-02 09:00:00 TS -14.4500 201.850 main 1511 1501 P________PP___ SH221960 -14.4500 -158.150 -1 -14.4500 -158.150 TC 25 -14.4500 -158.150 1 4 224
1960093S13203 1960 16 SP MM NOT_NAMED 1960-04-02 12:00:00 TS -14.6000 201.700 main 1501 1490 O________OO___ jtwc_sh SH221960 -14.6000 -158.300 -1 -14.6000 201.700 TC 25 -14.6000 -158.300 1 4 225
1960093S13203 1960 16 SP MM NOT_NAMED 1960-04-02 15:00:00 TS -14.7432 201.550 main 1480 1470 P________PP___ SH221960 -14.7500 -158.450 -1 -14.7500 -158.450 TC 25 -14.7297 -158.450 1 4 225
1960093S13203 1960 16 SP MM NOT_NAMED 1960-04-02 18:00:00 TS -14.8875 201.400 main 1470 1459 O________OP___ jtwc_sh SH221960 -14.9000 -158.600 -1 -14.9000 201.400 TC 25 -14.8625 -158.600 1 4 226
1960093S13203 1960 16 SP MM NOT_NAMED 1960-04-02 21:00:00 TS -15.0280 201.250 main 1449 1439 P________PP___ SH221960 -15.0350 -158.750 -1 -15.0350 -158.750 TC 25 -15.0140 -158.750 1 4 223
1960093S13203 1960 16 SP MM NOT_NAMED 1960-04-03 00:00:00 TS -15.2000 201.100 main 1440 1431 O________OO___ jtwc_sh SH221960 -15.2000 -158.900 -1 -15.2000 201.100 TC 25 -15.2000 -158.900 1 5 216
1960093S13203 1960 16 SP MM NOT_NAMED 1960-04-03 03:00:00 TS -15.4300 200.945 main 1421 1413 P________PP___ SH221960 -15.4275 -159.050 -1 -15.4275 -159.050 TC 25 -15.4350 -159.066 1 6 211
1960093S13203 1960 16 SP MM NOT_NAMED 1960-04-03 06:00:00 TS -15.7017 200.790 main 1414 1397 O________OP___ jtwc_sh SH221960 -15.7000 -159.200 -1 -15.7000 200.800 TC 25 -15.7051 -159.230 1 6 208
1960093S13203 1960 16 SP MM NOT_NAMED 1960-04-03 09:00:00 TS -15.9942 200.630 main 1397 1390 P________PP___ SH221960 -15.9925 -159.365 -1 -15.9925 -159.365 TC 25 -15.9976 -159.379 1 7 205
1960093S13203 1960 16 SP MM NOT_NAMED 1960-04-03 12:00:00 TS -16.3000 200.500 main 1392 1385 O________OO___ jtwc_sh SH221960 -16.3000 -159.500 -1 -16.3000 200.500 TC 25 -16.3000 -159.500 1 6 198
1960093S13203 1960 16 SP MM NOT_NAMED 1960-04-03 15:00:00 TS -16.5908 200.432 main 1388 1388 P________PP___ SH221960 -16.6000 -159.565 -1 -16.6000 -159.565 TC 25 -16.5724 -159.575 1 6 190
1960093S13203 1960 16 SP MM NOT_NAMED 1960-04-03 18:00:00 TS -16.8850 200.392 main 1395 1392 O________OP___ jtwc_sh SH221960 -16.9000 -159.600 -1 -16.9000 200.400 TC 25 -16.8549 -159.623 1 6 187
1960093S13203 1960 16 SP MM NOT_NAMED 1960-04-03 21:00:00 TS -17.1767 200.347 main 1392 1392 P________PP___ SH221960 -17.1850 -159.650 -1 -17.1850 -159.650 TC 25 -17.1600 -159.659 1 6 188
1960093S13203 1960 16 SP MM NOT_NAMED 1960-04-04 00:00:00 TS -17.5000 200.300 main 1401 1401 O________OO___ jtwc_sh SH221960 -17.5000 -159.700 -1 -17.5000 200.300 TC 25 -17.5000 -159.700 1 7 187
1960093S13203 1960 16 SP MM NOT_NAMED 1960-04-04 03:00:00 TS -17.8935 200.257 main 1413 1406 P________PP___ SH221960 -17.8775 -159.743 -1 -17.8775 -159.743 TC 25 -17.9255 -159.744 1 8 186
1960093S13203 1960 16 SP MM NOT_NAMED 1960-04-04 06:00:00 TS -18.3266 200.201 main 1417 1417 O________OP___ jtwc_sh SH221960 -18.3000 -159.800 -1 -18.3000 200.200 TC 25 -18.3798 -159.798 1 9 188
1960093S13203 1960 16 SP MM NOT_NAMED 1960-04-04 09:00:00 TS -18.7881 200.122 main 1426 1426 P________PP___ SH221960 -18.7725 -159.878 -1 -18.7725 -159.878 TC 25 -18.8192 -159.878 1 9 192
1960093S13203 1960 16 SP MM NOT_NAMED 1960-04-04 12:00:00 TS -19.2000 200.000 main 1433 1428 O________OO___ jtwc_sh SH221960 -19.2000 -160.000 -1 -19.2000 200.000 TC 25 -19.2000 -160.000 1 8 202
1960093S13203 1960 16 SP MM NOT_NAMED 1960-04-04 15:00:00 TS -19.4930 199.821 main 1428 1418 P________PP___ SH221960 -19.4950 -160.178 -1 -19.4950 -160.178 TC 25 -19.4891 -160.182 1 6 217
1960093S13203 1960 16 SP MM NOT_NAMED 1960-04-04 18:00:00 TS -19.7042 199.598 main 1418 1405 O________OP___ jtwc_sh SH221960 -19.7000 -160.400 -1 -19.7000 199.600 TC 25 -19.7126 -160.405 1 6 229
1960093S13203 1960 16 SP MM NOT_NAMED 1960-04-04 21:00:00 TS -19.8799 199.350 main 1400 1387 P________PP___ SH221960 -19.8800 -160.650 -1 -19.8800 -160.650 TC 25 -19.8797 -160.650 1 6 238
1960093S13203 1960 16 SP MM NOT_NAMED 1960-04-05 00:00:00 TS -20.0000 199.100 main 1387 1374 O________OO___ jtwc_sh SH221960 -20.0000 -160.900 -1 -20.0000 199.100 TC 25 -20.0000 -160.900 1 5 245
1960093S13203 1960 16 SP MM NOT_NAMED 1960-04-05 03:00:00 TS -20.0756 198.893 main 1374 1356 P________PP___ SH221960 -20.0649 -161.100 -1 -20.0649 -161.100 TC 25 -20.0971 -161.121 1 4 253
1960093S13203 1960 16 SP MM NOT_NAMED 1960-04-05 06:00:00 TS -20.1174 198.686 main 1356 1338 O________OP___ jtwc_sh SH221960 -20.1000 -161.300 -1 -20.1000 198.700 TC 25 -20.1523 -161.343 1 4 259
1960093S13203 1960 16 SP MM NOT_NAMED 1960-04-05 09:00:00 TS -20.1605 198.444 main 1334 1317 P________PP___ SH221960 -20.1500 -161.550 -1 -20.1500 -161.550 TC 25 -20.1814 -161.568 1 5 260
1960093S13203 1960 16 SP MM NOT_NAMED 1960-04-05 12:00:00 TS -20.2000 198.200 main 1317 1299 O________OO___ jtwc_sh SH221960 -20.2000 -161.800 -1 -20.2000 198.200 TC 25 -20.2000 -161.800 1 4 258
1960093S13203 1960 16 SP MM NOT_NAMED 1960-04-05 15:00:00 TS -20.2502 198.002 main 1305 1287 P________PP___ SH221960 -20.2574 -161.992 -1 -20.2574 -161.992 TC 25 -20.2358 -162.010 1 4 257
1960093S13203 1960 16 SP MM NOT_NAMED 1960-04-05 18:00:00 TS -20.2881 197.789 main 1287 1261 O________OP___ jtwc_sh SH221960 -20.3000 -162.200 -1 -20.3000 197.800 TC 25 -20.2643 -162.233 1 5 264
1960093S13203 1960 16 SP MM NOT_NAMED 1960-04-05 21:00:00 TS -20.3002 197.524 main 1261 1235 P________PP___ SH221960 -20.3074 -162.470 -1 -20.3074 -162.470 TC 25 -20.2856 -162.488 1 6 269
1960093S13203 1960 16 SP MM NOT_NAMED 1960-04-06 00:00:00 TS -20.3000 197.200 main 1235 1201 O________OO___ jtwc_sh SH221960 -20.3000 -162.800 -1 -20.3000 197.200 TC 25 -20.3000 -162.800 1 7 270
1960093S13203 1960 16 SP MM NOT_NAMED 1960-04-06 03:00:00 TS -20.3010 196.824 main 1201 1167 P________PP___ SH221960 -20.2999 -163.170 -1 -20.2999 -163.170 TC 25 -20.3033 -163.189 1 8 270
1960093S13203 1960 16 SP MM NOT_NAMED 1960-04-06 06:00:00 TS -20.3001 196.389 main 1167 1126 O________OP___ jtwc_sh SH221960 -20.3000 -163.600 -1 -20.3000 196.400 TC 25 -20.3002 -163.633 1 9 270
1960093S13203 1960 16 SP MM NOT_NAMED 1960-04-06 09:00:00 TS -20.2990 195.901 main 1126 1086 P________PP___ SH221960 -20.3000 -164.093 -1 -20.3000 -164.093 TC 25 -20.2969 -164.111 1 9 270
1960093S13203 1960 16 SP MM NOT_NAMED 1960-04-06 12:00:00 TS -20.3000 195.400 main 1086 1055 O________OO___ jtwc_sh SH221960 -20.3000 -164.600 -1 -20.3000 195.400 TC 25 -20.3000 -164.600 1 9 270
1960093S13203 1960 16 SP MM NOT_NAMED 1960-04-06 15:00:00 TS -20.2951 194.951 main 1055 1017 P________PP___ SH221960 -20.2923 -165.050 -1 -20.2923 -165.050 TC 25 -20.3009 -165.048 1 8 270
1960093S13203 1960 16 SP MM NOT_NAMED 1960-04-06 18:00:00 TS -20.3038 194.498 main 1017 981 O________OP___ jtwc_sh SH221960 -20.3000 -165.500 -1 -20.3000 194.500 TC 25 -20.3114 -165.506 1 9 267
1960093S13203 1960 16 SP MM NOT_NAMED 1960-04-06 21:00:00 TS -20.3420 194.020 main 981 955 P________PP___ SH221960 -20.3423 -165.977 -1 -20.3423 -165.977 TC 30 -20.3413 -165.986 1 9 264
1960093S13203 1960 16 SP MM NOT_NAMED 1960-04-07 00:00:00 TS -20.4000 193.500 main 955 915 O________OO___ jtwc_sh SH221960 -20.4000 -166.500 -1 -20.4000 193.500 TC 35 -20.4000 -166.500 2 10 264
1960093S13203 1960 16 SP MM NOT_NAMED 1960-04-07 03:00:00 TS -20.4425 192.911 main 915 889 P________PP___ SH221960 -20.4274 -167.085 -1 -20.4274 -167.085 TC 30 -20.4725 -167.097 2 11 264
1960093S13203 1960 16 SP MM NOT_NAMED 1960-04-07 06:00:00 TS -20.5253 192.292 main 889 871 O________OP___ jtwc_sh SH221960 -20.5000 -167.700 -1 -20.5000 192.300 TC 25 -20.5760 -167.723 2 12 258
1960093S13203 1960 16 SP MM NOT_NAMED 1960-04-07 09:00:00 TS -20.6855 191.668 main 876 862 P________PP___ SH221960 -20.6701 -168.330 -1 -20.6701 -168.330 TC 25 -20.7163 -168.337 2 12 251
1960093S13203 1960 16 SP MM NOT_NAMED 1960-04-07 12:00:00 TS -20.9000 191.100 main 868 863 O________OO___ jtwc_sh SH221960 -20.9000 -168.900 -1 -20.9000 191.100 TC 25 -20.9000 -168.900 1 10 245
1960093S13203 1960 16 SP MM NOT_NAMED 1960-04-07 15:00:00 TS -21.1320 190.659 main 872 869 P________PP___ SH221960 -21.1347 -169.330 -1 -21.1347 -169.330 TC 25 -21.1268 -169.362 1 9 237
1960093S13203 1960 16 SP MM NOT_NAMED 1960-04-07 18:00:00 TS -21.3987 190.277 main 890 887 O________OP___ jtwc_sh SH221960 -21.4000 -169.700 -1 -21.4000 190.300 TC 25 -21.3962 -169.768 1 9 232
1960093S13203 1960 16 SP MM NOT_NAMED 1960-04-07 21:00:00 TS -21.6925 189.887 main 911 908 P________PP___ SH221960 -21.6924 -170.100 -1 -21.6924 -170.100 TC 25 -21.6926 -170.140 1 9 230
1960093S13203 1960 16 SP MM NOT_NAMED 1960-04-08 00:00:00 TS -22.0000 189.500 main 934 932 O________OO___ jtwc_sh SH221960 -22.0000 -170.500 -1 -22.0000 189.500 TC 25 -22.0000 -170.500 1 10 231
1960093S13203 1960 16 SP MM NOT_NAMED 1960-04-08 03:00:00 TS -22.2949 189.085 main 960 959 P________PP___ SH221960 -22.3000 -170.908 -1 -22.3000 -170.908 TC 25 -22.2849 -170.931 1 10 232
1960093S13203 1960 16 SP MM NOT_NAMED 1960-04-08 06:00:00 TS -22.5926 188.684 main 989 988 O________OP___ jtwc_sh SH221960 -22.6000 -171.300 -1 -22.6000 188.700 TC 25 -22.5779 -171.347 1 9 230
1960093S13203 1960 16 SP MM NOT_NAMED 1960-04-08 09:00:00 TS -22.8940 188.298 main 1019 1018 P________PP___ SH221960 -22.9001 -171.695 -1 -22.9001 -171.695 TC 25 -22.8819 -171.715 1 9 226
1960093S13203 1960 16 SP MM NOT_NAMED 1960-04-08 12:00:00 TS -23.2000 188.000 main 1051 1051 O________OO___ jtwc_sh SH221960 -23.2000 -172.000 -1 -23.2000 188.000 TC 25 -23.2000 -172.000 1 7 215
1960093S13203 1960 16 SP MM NOT_NAMED 1960-04-08 15:00:00 TS -23.4704 187.862 main 1085 1085 P________PP___ SH221960 -23.4849 -172.145 -1 -23.4849 -172.145 TC 25 -23.4415 -172.124 1 6 197
1960093S13203 1960 16 SP MM NOT_NAMED 1960-04-08 18:00:00 TS -23.7706 187.810 main 1118 1118 O________OP___ jtwc_sh SH221960 -23.8000 -172.200 -1 -23.8000 187.800 TC 25 -23.7117 -172.170 1 6 187
1960093S13203 1960 16 SP MM NOT_NAMED 1960-04-08 21:00:00 TS -24.1036 187.779 main 1152 1152 P________PP___ SH221960 -24.1174 -172.228 -1 -24.1174 -172.228 TC 25 -24.0760 -172.206 1 8 186
1960093S13203 1960 16 SP MM NOT_NAMED 1960-04-09 00:00:00 TS -24.6000 187.700 main 1181 1181 O________OO___ jtwc_sh SH221960 -24.6000 -172.300 -1 -24.6000 187.700 TC 25 -24.6000 -172.300 1 13 191
1960093S13203 1960 16 SP MM NOT_NAMED 1960-04-09 03:00:00 TS -25.3760 187.496 main 1220 1220 P________PP___ SH221960 -25.3600 -172.498 -1 -25.3600 -172.498 TC 25 -25.4081 -172.516 1 18 195
1960093S13203 1960 16 SP MM NOT_NAMED 1960-04-09 06:00:00 TS -26.3224 187.198 main 1266 1266 O________OP___ jtwc_sh SH221960 -26.3000 -172.800 -1 -26.3000 187.200 TC 25 -26.3671 -172.806 1 21 197
1960093S13203 1960 16 SP MM NOT_NAMED 1960-04-09 09:00:00 TS -27.3374 186.840 main 1321 1273 P________PP___ SH221960 -27.3223 -173.155 -1 -27.3223 -173.155 TC 30 -27.3675 -173.169 1 21 200
1960093S13203 1960 16 SP MM NOT_NAMED 1960-04-09 12:00:00 TS -28.3000 186.400 main 1273 1181 O________OO___ jtwc_sh SH221960 -28.3000 -173.600 -1 -28.3000 186.400 TC 35 -28.3000 -173.600 2 19 206
1960093S13203 1960 16 SP MM NOT_NAMED 1960-04-09 15:00:00 TS -29.0639 185.877 main 1172 1084 P________PP___ SH221960 -29.0675 -174.128 -1 -29.0675 -174.128 TC 30 -29.0567 -174.112 2 17 214
1960093S13203 1960 16 SP MM NOT_NAMED 1960-04-09 18:00:00 TS -29.7079 185.306 main 1084 1002 O________OP___ jtwc_sh SH221960 -29.7000 -174.700 -1 -29.7000 185.300 TC 25 -29.7237 -174.683 2 16 219
1960093S13203 1960 16 SP MM NOT_NAMED 1960-04-09 21:00:00 TS -30.3028 184.736 main 997 924 P________PP___ SH221960 -30.3024 -175.265 -1 -30.3024 -175.265 TC 25 -30.3037 -175.262 2 15 221
1960093S13203 1960 16 SP MM NOT_NAMED 1960-04-10 00:00:00 TS -30.8000 184.200 main 924 861 O________OO___ jtwc_sh SH221960 -30.8000 -175.800 -1 -30.8000 184.200 TC 25 -30.8000 -175.800 1 12 224
1960093S13203 1960 16 SP MM NOT_NAMED 1960-04-10 03:00:00 TS -31.1933 183.722 main 861 813 P________PP___ SH221960 -31.1799 -176.288 -1 -31.1799 -176.288 TC 25 -31.2201 -176.257 1 10 226
1960093S13203 1960 16 SP MM NOT_NAMED 1960-04-10 06:00:00 TS -31.5222 183.314 main 813 770 O________OP___ jtwc_sh SH221960 -31.5000 -176.700 -1 -31.5000 183.300 TC 25 -31.5666 -176.659 1 9 224
1960093S13203 1960 16 SP MM NOT_NAMED 1960-04-10 09:00:00 TS -31.8548 182.973 main 760 717 P________PP___ SH221960 -31.8423 -177.038 -1 -31.8423 -177.038 TC 25 -31.8798 -177.006 1 9 218
1960093S13203 1960 16 SP MM NOT_NAMED 1960-04-10 12:00:00 TS -32.2000 182.700 main 717 669 O________OO___ jtwc_sh SH221960 -32.2000 -177.300 -1 -32.2000 182.700 TC 25 -32.2000 -177.300 1 9 210
1960093S13203 1960 16 SP MM NOT_NAMED 1960-04-10 15:00:00 TS -32.5954 182.470 main 669 621 P________PP___ SH221960 -32.5924 -177.515 -1 -32.5924 -177.515 TC 25 -32.6013 -177.559 1 9 204
1960093S13203 1960 16 SP MM NOT_NAMED 1960-04-10 18:00:00 TS -33.0048 182.277 main 621 573 O________OP___ jtwc_sh SH221960 -33.0000 -177.700 -1 -33.0000 182.300 TC 25 -33.0143 -177.769 1 9 202
1960093S13203 1960 16 SP MM NOT_NAMED 1960-04-10 21:00:00 TS -33.4167 182.081 main 573 526 P________PP___ SH221960 -33.4150 -177.908 -1 -33.4150 -177.908 TC 25 -33.4202 -177.943 1 9 202
1960093S13203 1960 16 SP MM NOT_NAMED 1960-04-11 00:00:00 TS -33.8000 181.900 main 526 493 O________OO___ jtwc_sh SH221960 -33.8000 -178.100 -1 -33.8000 181.900 TC 25 -33.8000 -178.100 1 8 201
1960093S13203 1960 16 SP MM NOT_NAMED 1960-04-11 03:00:00 TS -34.1218 181.764 main 493 455 P________PP___ SH221960 -34.1149 -178.258 -1 -34.1149 -178.258 TC 25 -34.1355 -178.194 1 7 199
1960093S13203 1960 16 SP MM NOT_NAMED 1960-04-11 06:00:00 TS -34.4143 181.639 main 455 428 O________OP___ jtwc_sh SH221960 -34.4000 -178.400 -1 -34.4000 181.600 TC 25 -34.4428 -178.284 1 6 197
1960093S13203 1960 16 SP MM NOT_NAMED 1960-04-11 09:00:00 TS -34.7140 181.549 main 423 385 P________PP___ SH221960 -34.7067 -178.461 -1 -34.7067 -178.461 TC 25 -34.7287 -178.431 1 7 205
1960093S13203 1960 16 SP MM NOT_NAMED 1960-04-11 12:00:00 TS -35.0000 181.300 main 385 335 O________OO___ jtwc_sh SH221960 -35.0000 -178.700 -1 -35.0000 181.300 TC 25 -35.0000 -178.700 1 9 235
1960093S13203 1960 16 SP MM NOT_NAMED 1960-04-11 15:00:00 TS -35.2486 180.614 main 330 271 P________PP___ SH221960 -35.2590 -179.404 -1 -35.2590 -179.404 TC 25 -35.2280 -179.349 1 13 248
1960093S13203 1960 16 SP MM NOT_NAMED 1960-04-11 18:00:00 TS -35.4818 179.835 main 267 226 O________OP___ jtwc_sh SH221960 -35.5000 179.800 -1 -35.5000 179.800 TC 25 -35.4454 179.906 1 12 248
1960093S13203 1960 16 SP MM NOT_NAMED 1960-04-11 21:00:00 TS -35.7044 179.195 main 226 186 P________PP___ SH221960 -35.7120 179.164 -1 -35.7120 179.164 TC 25 -35.6892 179.257 1 9 236
1960093S13203 1960 16 SP MM NOT_NAMED 1960-04-12 00:00:00 TS -36.0000 178.900 main 186 151 O________OO___ jtwc_sh SH221960 -36.0000 178.900 -1 -36.0000 178.900 TC 25 -36.0000 178.900 1 8 0
1960093S13203 1960 16 SP MM NOT_NAMED 1960-04-12 03:00:00 TS -36.4608 179.201 main 143 127 P________PP___ SH221960 -36.4628 179.248 -1 -36.4628 179.248 TC 25 -36.4568 179.106 1 12 144
1960093S13203 1960 16 SP MM NOT_NAMED 1960-04-12 06:00:00 TS -36.9931 179.808 main 131 131 O________OP___ jtwc_sh SH221960 -37.0000 179.900 -1 -37.0000 179.900 TC 25 -36.9793 179.623 1 14 138
1960093S13203 1960 16 SP MM NOT_NAMED 1960-04-12 09:00:00 TS -37.5189 180.407 main 159 159 P________PP___ SH221960 -37.5225 -179.543 -1 -37.5225 -179.543 TC 25 -37.5116 -179.694 1 14 137
1960093S13203 1960 16 SP MM NOT_NAMED 1960-04-12 12:00:00 TS -38.0000 181.000 main 212 212 O________OO___ jtwc_sh SH221960 -38.0000 -179.000 -1 -38.0000 181.000 TC 25 -38.0000 -179.000 1 12 135
1960093S13203 1960 16 SP MM NOT_NAMED 1960-04-12 15:00:00 TS -38.3885 181.504 main 264 264 P________PP___ SH221960 -38.3796 -178.534 -1 -38.3796 -178.534 TC 25 -38.4063 -178.420 1 10 134
1960093S13203 1960 16 SP MM NOT_NAMED 1960-04-12 18:00:00 TS -38.7143 181.950 main 308 308 O________OP___ jtwc_sh SH221960 -38.7000 -178.100 -1 -38.7000 181.900 TC 25 -38.7428 -177.951 1 9 133
1960093S13203 1960 16 SP MM NOT_NAMED 1960-04-12 21:00:00 TS -39.0130 182.377 main 358 358 P________PP___ SH221960 -39.0030 -177.656 -1 -39.0030 -177.656 TC 25 -39.0331 -177.557 1 9 132
1960093S13203 1960 16 SP MM NOT_NAMED 1960-04-13 00:00:00 TS -39.3000 182.800 main 398 O________OO___ jtwc_sh SH221960 -39.3000 -177.200 -1 -39.3000 182.800 TC 25 -39.3000 -177.200 1 9 131

デジタル台風データ・検索

IBTrACS Databaseについて

本データベースは、米国NOAAが公開する1842年以降の世界の熱帯低気圧のベストトラックデータアーカイブInternational Best Track Archive for Climate Stewardship (IBTrACS)を、ウェブで閲覧しやすい形式に変換したものです。

最終更新日:2021-12-08